Valtellina — ICKF — position and weather

sailwx.info

Track history (hours):
 
Tides and Currents Weather Stations Pressure Air Temp Water Temp Dewpoint Dewpoint Depression Visibility Wind Speed Wind Dir Waves Ship Positions

Valtellina

Last reported at 2016-May-29 01:33 UTC. Time now 2016-May-30 18:27 UTC.
Position N 34°30' E 032°44'.

Length 184 m; draft 8.6 m.

Type: Ship (hazmat cat A). MMSI: 247243900.

Date/timePositionNaut miles runAvg speedWind from/ knotsBaromVisibWave heightAir tempDewpointWater temp
2016-May-29 01:33N 34°30' E 032°44'1313.0
2016-May-29 00:33N 34°30' E 032°59'1312.6
2016-May-28 23:34N 34°36' E 033°13'8 8.3
2016-May-28 22:33N 34°42' E 033°20'0 0.0
2016-May-28 21:33N 34°42' E 033°20'0 0.0
2016-May-28 20:33N 34°42' E 033°20'0 0.0
2016-May-28 19:30N 34°42' E 033°20'0 0.0
2016-May-28 18:33N 34°42' E 033°20'1 0.2
2016-May-28 15:27N 34°43' E 033°19'0 0.0
2016-May-28 14:33N 34°43' E 033°19'0 0.0
2016-May-27 19:33N 34°43' E 033°19'0 0.0
2016-May-27 18:21N 34°43' E 033°19'0 0.0
2016-May-27 16:33N 34°43' E 033°19'0 0.0
2016-May-27 15:33N 34°43' E 033°19'0 0.0
2016-May-27 14:33N 34°43' E 033°19'0 0.0
2016-May-27 12:33N 34°43' E 033°19'0 0.0
2016-May-27 04:30N 34°43' E 033°19'1 1.0
2016-May-27 03:33N 34°42' E 033°20'0 0.1
2016-May-27 00:30N 34°42' E 033°20'0 0.1
2016-May-26 23:33N 34°42' E 033°20'0 0.0
2016-May-26 22:33N 34°42' E 033°20'0 0.1
2016-May-26 21:33N 34°42' E 033°20'0 0.0
2016-May-26 20:33N 34°42' E 033°20'0 0.0
2016-May-26 19:33N 34°42' E 033°20'0 0.0
2016-May-26 18:33N 34°42' E 033°20'0 0.0
2016-May-26 17:33N 34°42' E 033°20'0 0.0
2016-May-26 16:33N 34°42' E 033°20'0 0.0
2016-May-26 15:33N 34°42' E 033°20'2 1.7
2016-May-26 14:33N 34°40' E 033°20'9 8.8
2016-May-26 13:34N 34°34' E 033°12'1313.3
2016-May-26 12:34N 34°26' E 032°59'1413.5
2016-May-26 11:33N 34°19' E 032°46'1413.5
2016-May-26 10:33N 34°12' E 032°32'1313.2
2016-May-26 09:32N 34°04' E 032°18'13013.0
2016-May-25 23:32N 32°50' E 030°10'1313.3
2016-May-25 22:34N 32°44' E 029°57'71 5.1
2016-May-25 08:33N 31°41' E 029°18'1412.6
2016-May-25 07:25N 31°31' E 029°29'2412.8
2016-May-25 05:31N 31°12' E 029°48'  
2016-May-22 03:10N 31°12' E 029°42'0 0.0
2016-May-22 02:31N 31°12' E 029°42'5 2.1
2016-May-22 00:23N 31°15' E 029°38'3611.8
2016-May-21 21:19N 31°32' E 029°00'3412.0
2016-May-21 18:29N 31°46' E 028°23'2312.1
2016-May-21 16:32N 31°55' E 027°58'4011.8
2016-May-21 13:09N 32°11' E 027°14'812.1
2016-May-21 12:31N 32°14' E 027°06'1212.2
2016-May-21 11:32N 32°19' E 026°53'  
2016-May-19 06:33N 36°35' E 014°47'1313.2
2016-May-19 05:33N 36°38' E 014°31'1313.0
2016-May-19 04:33N 36°44' E 014°16'1313.0
2016-May-19 03:33N 36°51' E 014°03'1312.7
2016-May-19 02:33N 36°56' E 013°48'  
Track history (hours):
 
Tides and Currents Weather Stations Pressure Air Temp Water Temp Dewpoint Dewpoint Depression Visibility Wind Speed Wind Dir Waves Ship Positions

Valtellina

Last reported at 2016-May-29 01:33 UTC. Time now 2016-May-30 18:27 UTC.
Position N 34°30' E 032°44'.

Length 184 m; draft 8.6 m.

Type: Ship (hazmat cat A). MMSI: 247243900.

Date/timePositionNaut miles runAvg speedWind from/ knotsBaromVisibWave heightAir tempDewpointWater temp
2016-May-29 01:33N 34°30' E 032°44'1313.0
2016-May-29 00:33N 34°30' E 032°59'1312.6
2016-May-28 23:34N 34°36' E 033°13'8 8.3
2016-May-28 22:33N 34°42' E 033°20'0 0.0
2016-May-28 21:33N 34°42' E 033°20'0 0.0
2016-May-28 20:33N 34°42' E 033°20'0 0.0
2016-May-28 19:30N 34°42' E 033°20'0 0.0
2016-May-28 18:33N 34°42' E 033°20'1 0.2
2016-May-28 15:27N 34°43' E 033°19'0 0.0
2016-May-28 14:33N 34°43' E 033°19'0 0.0
2016-May-27 19:33N 34°43' E 033°19'0 0.0
2016-May-27 18:21N 34°43' E 033°19'0 0.0
2016-May-27 16:33N 34°43' E 033°19'0 0.0
2016-May-27 15:33N 34°43' E 033°19'0 0.0
2016-May-27 14:33N 34°43' E 033°19'0 0.0
2016-May-27 12:33N 34°43' E 033°19'0 0.0
2016-May-27 04:30N 34°43' E 033°19'1 1.0
2016-May-27 03:33N 34°42' E 033°20'0 0.1
2016-May-27 00:30N 34°42' E 033°20'0 0.1
2016-May-26 23:33N 34°42' E 033°20'0 0.0
2016-May-26 22:33N 34°42' E 033°20'0 0.1
2016-May-26 21:33N 34°42' E 033°20'0 0.0
2016-May-26 20:33N 34°42' E 033°20'0 0.0
2016-May-26 19:33N 34°42' E 033°20'0 0.0
2016-May-26 18:33N 34°42' E 033°20'0 0.0
2016-May-26 17:33N 34°42' E 033°20'0 0.0
2016-May-26 16:33N 34°42' E 033°20'0 0.0
2016-May-26 15:33N 34°42' E 033°20'2 1.7
2016-May-26 14:33N 34°40' E 033°20'9 8.8
2016-May-26 13:34N 34°34' E 033°12'1313.3
2016-May-26 12:34N 34°26' E 032°59'1413.5
2016-May-26 11:33N 34°19' E 032°46'1413.5
2016-May-26 10:33N 34°12' E 032°32'1313.2
2016-May-26 09:32N 34°04' E 032°18'13013.0
2016-May-25 23:32N 32°50' E 030°10'1313.3
2016-May-25 22:34N 32°44' E 029°57'71 5.1
2016-May-25 08:33N 31°41' E 029°18'1412.6
2016-May-25 07:25N 31°31' E 029°29'2412.8
2016-May-25 05:31N 31°12' E 029°48'  
2016-May-22 03:10N 31°12' E 029°42'0 0.0
2016-May-22 02:31N 31°12' E 029°42'5 2.1
2016-May-22 00:23N 31°15' E 029°38'3611.8
2016-May-21 21:19N 31°32' E 029°00'3412.0
2016-May-21 18:29N 31°46' E 028°23'2312.1
2016-May-21 16:32N 31°55' E 027°58'4011.8
2016-May-21 13:09N 32°11' E 027°14'812.1
2016-May-21 12:31N 32°14' E 027°06'1212.2
2016-May-21 11:32N 32°19' E 026°53'  
2016-May-19 06:33N 36°35' E 014°47'1313.2
2016-May-19 05:33N 36°38' E 014°31'1313.0
2016-May-19 04:33N 36°44' E 014°16'1313.0
2016-May-19 03:33N 36°51' E 014°03'1312.7
2016-May-19 02:33N 36°56' E 013°48'  

Dump ship's entire track history